sensor_id;sensor_type;location;lat;lon;timestamp;pressure;altitude;pressure_sealevel;temperature;humidity
79000;BME280;68406;53.914;27.416;2023-03-20T00:04:22;988.9;;;5.8;64.4
79000;BME280;68406;53.914;27.416;2023-03-20T00:09:00;988.9;;;5.8;64.3
79000;BME280;68406;53.914;27.416;2023-03-20T00:14:01;988.8;;;5.8;64.5
79000;BME280;68406;53.914;27.416;2023-03-20T00:19:13;988.8;;;5.7;64.5
79000;BME280;68406;53.914;27.416;2023-03-20T00:24:13;988.8;;;5.7;64.5
79000;BME280;68406;53.914;27.416;2023-03-20T00:28:41;988.8;;;5.7;64.6
79000;BME280;68406;53.914;27.416;2023-03-20T00:33:47;988.7;;;5.7;64.7
79000;BME280;68406;53.914;27.416;2023-03-20T00:39:20;988.7;;;5.6;64.9
79000;BME280;68406;53.914;27.416;2023-03-20T00:43:59;988.7;;;5.6;64.9
79000;BME280;68406;53.914;27.416;2023-03-20T00:48:48;988.7;;;5.6;65.1
79000;BME280;68406;53.914;27.416;2023-03-20T00:54:20;988.6;;;5.5;65.2
79000;BME280;68406;53.914;27.416;2023-03-20T00:59:02;988.6;;;5.4;65.3
79000;BME280;68406;53.914;27.416;2023-03-20T01:03:48;988.6;;;5.4;65.5
79000;BME280;68406;53.914;27.416;2023-03-20T01:09:08;988.5;;;5.3;65.6
79000;BME280;68406;53.914;27.416;2023-03-20T01:14:20;988.4;;;5.3;65.8
79000;BME280;68406;53.914;27.416;2023-03-20T01:18:40;988.4;;;5.2;66
79000;BME280;68406;53.914;27.416;2023-03-20T01:24:08;988.4;;;5.1;66.2
79000;BME280;68406;53.914;27.416;2023-03-20T01:29:21;988.4;;;5;66.5
79000;BME280;68406;53.914;27.416;2023-03-20T01:34:07;988.4;;;4.9;66.8
79000;BME280;68406;53.914;27.416;2023-03-20T01:38:49;988.3;;;4.8;67.1
79000;BME280;68406;53.914;27.416;2023-03-20T01:43:59;988.3;;;4.7;67.4
79000;BME280;68406;53.914;27.416;2023-03-20T01:50:27;988.3;;;4.7;67.6
79000;BME280;68406;53.914;27.416;2023-03-20T01:53:59;988.3;;;4.7;67.7
79000;BME280;68406;53.914;27.416;2023-03-20T01:58:53;988.3;;;4.7;67.9
79000;BME280;68406;53.914;27.416;2023-03-20T02:03:42;988.3;;;4.7;67.9
79000;BME280;68406;53.914;27.416;2023-03-20T02:09:09;988.2;;;4.7;68
79000;BME280;68406;53.914;27.416;2023-03-20T02:13:41;988.1;;;4.8;68.2
79000;BME280;68406;53.914;27.416;2023-03-20T02:18:41;988.1;;;4.8;68.1
79000;BME280;68406;53.914;27.416;2023-03-20T02:29:02;988;;;4.9;68
79000;BME280;68406;53.914;27.416;2023-03-20T02:34:27;988;;;4.9;68
79000;BME280;68406;53.914;27.416;2023-03-20T02:39:16;987.9;;;4.9;68
79000;BME280;68406;53.914;27.416;2023-03-20T02:43:42;987.8;;;4.9;68.1
79000;BME280;68406;53.914;27.416;2023-03-20T02:49:09;987.8;;;5;68
79000;BME280;68406;53.914;27.416;2023-03-20T02:53:59;987.8;;;5;67.9
79000;BME280;68406;53.914;27.416;2023-03-20T02:58:50;987.8;;;5;68.1
79000;BME280;68406;53.914;27.416;2023-03-20T03:04:03;987.8;;;4.9;68.1
79000;BME280;68406;53.914;27.416;2023-03-20T03:09:21;987.8;;;5;67.8
79000;BME280;68406;53.914;27.416;2023-03-20T03:13:41;987.8;;;5;67.8
79000;BME280;68406;53.914;27.416;2023-03-20T03:19:22;987.8;;;4.9;67.9
79000;BME280;68406;53.914;27.416;2023-03-20T03:24:23;987.7;;;4.9;68
79000;BME280;68406;53.914;27.416;2023-03-20T03:29:13;987.6;;;4.9;67.8
79000;BME280;68406;53.914;27.416;2023-03-20T03:33:55;987.6;;;4.9;67.9
79000;BME280;68406;53.914;27.416;2023-03-20T03:38:42;987.6;;;4.9;68.1
79000;BME280;68406;53.914;27.416;2023-03-20T03:44:11;987.5;;;4.9;67.9
79000;BME280;68406;53.914;27.416;2023-03-20T03:49:07;987.5;;;4.9;67.7
79000;BME280;68406;53.914;27.416;2023-03-20T03:53:53;987.4;;;4.9;68.1
79000;BME280;68406;53.914;27.416;2023-03-20T03:59:22;987.4;;;4.9;67.6
79000;BME280;68406;53.914;27.416;2023-03-20T04:04:20;987.4;;;4.9;67.8
79000;BME280;68406;53.914;27.416;2023-03-20T04:08:41;987.4;;;5;67.6
79000;BME280;68406;53.914;27.416;2023-03-20T04:14:09;987.3;;;5;67.7
79000;BME280;68406;53.914;27.416;2023-03-20T04:19:21;987.3;;;5;67.4
79000;BME280;68406;53.914;27.416;2023-03-20T04:23:41;987.3;;;5.1;67.3
79000;BME280;68406;53.914;27.416;2023-03-20T04:28:54;987.3;;;5.2;67.4
79000;BME280;68406;53.914;27.416;2023-03-20T04:34:21;987.3;;;5.2;67.2
79000;BME280;68406;53.914;27.416;2023-03-20T04:39:21;987.2;;;5.2;67.1
79000;BME280;68406;53.914;27.416;2023-03-20T04:43:40;987.2;;;5.3;67
79000;BME280;68406;53.914;27.416;2023-03-20T04:48:50;987.2;;;5.3;66.9
79000;BME280;68406;53.914;27.416;2023-03-20T04:54:23;987.3;;;5.4;66.7
79000;BME280;68406;53.914;27.416;2023-03-20T04:59:23;987.3;;;5.4;66.6
79000;BME280;68406;53.914;27.416;2023-03-20T05:03:48;987.4;;;5.4;66.6
79000;BME280;68406;53.914;27.416;2023-03-20T05:09:01;987.4;;;5.5;66.3
79000;BME280;68406;53.914;27.416;2023-03-20T05:14:11;987.4;;;5.5;66.4
79000;BME280;68406;53.914;27.416;2023-03-20T05:18:41;987.3;;;5.5;66.3
79000;BME280;68406;53.914;27.416;2023-03-20T05:23:40;987.3;;;5.7;65.9
79000;BME280;68406;53.914;27.416;2023-03-20T05:29:23;987.3;;;5.7;65.5
79000;BME280;68406;53.914;27.416;2023-03-20T05:33:40;987.3;;;5.6;65.8
79000;BME280;68406;53.914;27.416;2023-03-20T05:39:23;987.3;;;5.6;65.5
79000;BME280;68406;53.914;27.416;2023-03-20T05:44:15;987.3;;;5.5;65.9
79000;BME280;68406;53.914;27.416;2023-03-20T05:48:41;987.3;;;5.5;65.8
79000;BME280;68406;53.914;27.416;2023-03-20T05:54:07;987.3;;;5.7;65.5
79000;BME280;68406;53.914;27.416;2023-03-20T05:58:40;987.3;;;5.7;65.4
79000;BME280;68406;53.914;27.416;2023-03-20T06:03:49;987.3;;;5.8;65
79000;BME280;68406;53.914;27.416;2023-03-20T06:09:11;987.3;;;6;64.6
79000;BME280;68406;53.914;27.416;2023-03-20T06:14:23;987.3;;;6;64.4
79000;BME280;68406;53.914;27.416;2023-03-20T06:19:03;987.4;;;6.3;63.9
79000;BME280;68406;53.914;27.416;2023-03-20T06:24:23;987.4;;;6.4;63.5
79000;BME280;68406;53.914;27.416;2023-03-20T06:29:23;987.4;;;6.5;63.2
79000;BME280;68406;53.914;27.416;2023-03-20T06:34:15;987.4;;;6.6;62.8
79000;BME280;68406;53.914;27.416;2023-03-20T06:38:51;987.4;;;6.8;62.5
79000;BME280;68406;53.914;27.416;2023-03-20T06:43:57;987.4;;;6.9;62
79000;BME280;68406;53.914;27.416;2023-03-20T06:49:13;987.4;;;7.2;61.5
79000;BME280;68406;53.914;27.416;2023-03-20T06:54:07;987.4;;;7.4;60.9
79000;BME280;68406;53.914;27.416;2023-03-20T06:58:49;987.4;;;7.7;60
79000;BME280;68406;53.914;27.416;2023-03-20T07:04:23;987.4;;;8.1;59.2
79000;BME280;68406;53.914;27.416;2023-03-20T07:09:25;987.4;;;8.4;58.2
79000;BME280;68406;53.914;27.416;2023-03-20T07:13:41;987.4;;;8.6;57.7
79000;BME280;68406;53.914;27.416;2023-03-20T07:18:55;987.3;;;9;56.3
79000;BME280;68406;53.914;27.416;2023-03-20T07:24:09;987.3;;;8.9;56.3
79000;BME280;68406;53.914;27.416;2023-03-20T07:28:55;987.3;;;9;56.3
79000;BME280;68406;53.914;27.416;2023-03-20T07:33:47;987.3;;;9.2;55.4
79000;BME280;68406;53.914;27.416;2023-03-20T07:38:53;987.3;;;9.2;55.4
79000;BME280;68406;53.914;27.416;2023-03-20T07:43:51;987.3;;;9.3;55.4
79000;BME280;68406;53.914;27.416;2023-03-20T07:49:27;987.3;;;9.4;54.9
79000;BME280;68406;53.914;27.416;2023-03-20T07:54:25;987.2;;;9.3;55.1
79000;BME280;68406;53.914;27.416;2023-03-20T07:59:25;987.2;;;9.4;55.1
79000;BME280;68406;53.914;27.416;2023-03-20T08:04:25;987.2;;;9.5;54.7
79000;BME280;68406;53.914;27.416;2023-03-20T08:09:25;987.2;;;9.6;54.4
79000;BME280;68406;53.914;27.416;2023-03-20T08:13:55;987.2;;;9.7;54.2
79000;BME280;68406;53.914;27.416;2023-03-20T08:19:11;987.2;;;10;53.5
79000;BME280;68406;53.914;27.416;2023-03-20T08:23:41;987.2;;;10.2;53.2
79000;BME280;68406;53.914;27.416;2023-03-20T08:29:03;987.1;;;10.6;52.5
79000;BME280;68406;53.914;27.416;2023-03-20T08:34:17;987.1;;;11.3;51.1
79000;BME280;68406;53.914;27.416;2023-03-20T08:38:47;987.1;;;11.7;49.9
79000;BME280;68406;53.914;27.416;2023-03-20T08:44:25;987.1;;;11.8;49.6
79000;BME280;68406;53.914;27.416;2023-03-20T08:49:09;987;;;12.3;48.4
79000;BME280;68406;53.914;27.416;2023-03-20T08:53:49;987;;;12.6;47.6
79000;BME280;68406;53.914;27.416;2023-03-20T08:59:07;987;;;12.8;47.1
79000;BME280;68406;53.914;27.416;2023-03-20T09:03:41;987;;;12.7;46.7
79000;BME280;68406;53.914;27.416;2023-03-20T09:08:41;986.9;;;12.8;46.8
79000;BME280;68406;53.914;27.416;2023-03-20T09:14:11;986.9;;;13.1;46.2
79000;BME280;68406;53.914;27.416;2023-03-20T09:19:25;986.9;;;13.2;45.8
79000;BME280;68406;53.914;27.416;2023-03-20T09:24:03;986.9;;;13.6;45.2
79000;BME280;68406;53.914;27.416;2023-03-20T09:29:25;986.9;;;13.7;44.9
79000;BME280;68406;53.914;27.416;2023-03-20T09:34:25;986.9;;;13.7;44.6
79000;BME280;68406;53.914;27.416;2023-03-20T09:39:17;986.9;;;13.8;44.5
79000;BME280;68406;53.914;27.416;2023-03-20T09:43:50;986.8;;;13.7;44.4
79000;BME280;68406;53.914;27.416;2023-03-20T09:48:51;986.8;;;13.7;44.3
79000;BME280;68406;53.914;27.416;2023-03-20T09:53:43;986.8;;;13.7;44.2
79000;BME280;68406;53.914;27.416;2023-03-20T09:59:10;986.7;;;13.5;44.3
79000;BME280;68406;53.914;27.416;2023-03-20T10:03:52;986.7;;;13.2;44.9
79000;BME280;68406;53.914;27.416;2023-03-20T10:09:27;986.7;;;13.1;45
79000;BME280;68406;53.914;27.416;2023-03-20T10:14:28;986.7;;;13.2;44.8
79000;BME280;68406;53.914;27.416;2023-03-20T10:18:42;986.6;;;13.2;44.9
79000;BME280;68406;53.914;27.416;2023-03-20T10:23:52;986.6;;;13.4;44.8
79000;BME280;68406;53.914;27.416;2023-03-20T10:29:13;986.5;;;13.6;44.7
79000;BME280;68406;53.914;27.416;2023-03-20T10:33:53;986.5;;;13.7;44.3
79000;BME280;68406;53.914;27.416;2023-03-20T10:38:55;986.4;;;13.9;44.1
79000;BME280;68406;53.914;27.416;2023-03-20T10:44:18;986.4;;;14;43.9
79000;BME280;68406;53.914;27.416;2023-03-20T10:48:41;986.3;;;14.3;43.5
79000;BME280;68406;53.914;27.416;2023-03-20T10:54:26;986.2;;;14.9;42.7
79000;BME280;68406;53.914;27.416;2023-03-20T10:59:02;986.2;;;15.2;42
79000;BME280;68406;53.914;27.416;2023-03-20T11:04:07;986.1;;;15.4;41.4
79000;BME280;68406;53.914;27.416;2023-03-20T11:08:45;986.1;;;15.5;40.9
79000;BME280;68406;53.914;27.416;2023-03-20T11:14:25;986;;;15.9;40.4
79000;BME280;68406;53.914;27.416;2023-03-20T11:19:03;985.9;;;16.6;39.4
79000;BME280;68406;53.914;27.416;2023-03-20T11:24:18;985.9;;;17.4;38.1
79000;BME280;68406;53.914;27.416;2023-03-20T11:28:41;985.8;;;17.3;37.8
79000;BME280;68406;53.914;27.416;2023-03-20T11:34:20;985.8;;;17;37.8
79000;BME280;68406;53.914;27.416;2023-03-20T11:38:57;985.8;;;16.4;38.3
79000;BME280;68406;53.914;27.416;2023-03-20T11:43:47;985.8;;;16.3;38.6
79000;BME280;68406;53.914;27.416;2023-03-20T11:49:25;985.7;;;16.2;38.4
79000;BME280;68406;53.914;27.416;2023-03-20T11:53:55;985.6;;;15.5;39.3
79000;BME280;68406;53.914;27.416;2023-03-20T11:58:56;985.6;;;15.4;39.4
79000;BME280;68406;53.914;27.416;2023-03-20T12:04:27;985.5;;;15.6;39.4
79000;BME280;68406;53.914;27.416;2023-03-20T12:09:04;985.4;;;16;38.9
79000;BME280;68406;53.914;27.416;2023-03-20T12:13:53;985.4;;;16.3;38.6
79000;BME280;68406;53.914;27.416;2023-03-20T12:19:13;985.4;;;17.2;37.4
79000;BME280;68406;53.914;27.416;2023-03-20T12:24:26;985.3;;;17.9;36.4
79000;BME280;68406;53.914;27.416;2023-03-20T12:28:42;985.3;;;18.2;35.5
79000;BME280;68406;53.914;27.416;2023-03-20T12:33:57;985.2;;;18.2;35.3
79000;BME280;68406;53.914;27.416;2023-03-20T12:39:27;985.1;;;19.6;33.6
79000;BME280;68406;53.914;27.416;2023-03-20T12:44:20;985.1;;;20.8;32.2
79000;BME280;68406;53.914;27.416;2023-03-20T12:48:44;985;;;21.3;30.8
79000;BME280;68406;53.914;27.416;2023-03-20T12:53:54;984.9;;;22.2;30
79000;BME280;68406;53.914;27.416;2023-03-20T12:59:14;984.9;;;23.5;28.1
79000;BME280;68406;53.914;27.416;2023-03-20T13:04:15;984.8;;;24.2;27
79000;BME280;68406;53.914;27.416;2023-03-20T13:08:57;984.8;;;24.5;26.1
79000;BME280;68406;53.914;27.416;2023-03-20T13:14:28;984.7;;;24.2;26.2
79000;BME280;68406;53.914;27.416;2023-03-20T13:19:28;984.7;;;25.5;25
79000;BME280;68406;53.914;27.416;2023-03-20T13:23:53;984.7;;;24.9;25.3
79000;BME280;68406;53.914;27.416;2023-03-20T13:28:44;984.6;;;24;25.9
79000;BME280;68406;53.914;27.416;2023-03-20T13:33:45;984.6;;;23.5;25.7
79000;BME280;68406;53.914;27.416;2023-03-20T13:38:51;984.6;;;22.2;25.8
79000;BME280;68406;53.914;27.416;2023-03-20T13:44:27;984.5;;;22.5;25.8
79000;BME280;68406;53.914;27.416;2023-03-20T13:49:10;984.4;;;22.7;26
79000;BME280;68406;53.914;27.416;2023-03-20T13:53:50;984.4;;;24.5;24.5
79000;BME280;68406;53.914;27.416;2023-03-20T13:59:33;984.3;;;27.3;22.2
79000;BME280;68406;53.914;27.416;2023-03-20T14:04:03;984.3;;;26.8;21.8
79000;BME280;68406;53.914;27.416;2023-03-20T14:09:28;984.3;;;27.5;21.2
79000;BME280;68406;53.914;27.416;2023-03-20T14:14:11;984.2;;;28.3;20.6
79000;BME280;68406;53.914;27.416;2023-03-20T14:19:25;984.2;;;27.9;20.7
79000;BME280;68406;53.914;27.416;2023-03-20T14:24:05;984.1;;;26.9;21.3
79000;BME280;68406;53.914;27.416;2023-03-20T14:29:19;984.1;;;23.8;23.7
79000;BME280;68406;53.914;27.416;2023-03-20T14:33:53;984.1;;;20.1;27.7
79000;BME280;68406;53.914;27.416;2023-03-20T14:39:18;984.2;;;17;32.1
79000;BME280;68406;53.914;27.416;2023-03-20T14:43:46;984.2;;;16.3;31.5
79000;BME280;68406;53.914;27.416;2023-03-20T14:48:41;984.2;;;15.1;35.3
79000;BME280;68406;53.914;27.416;2023-03-20T14:54:25;984.1;;;14.3;38.6
79000;BME280;68406;53.914;27.416;2023-03-20T14:59:01;984.1;;;13.7;40.1
79000;BME280;68406;53.914;27.416;2023-03-20T15:04:18;984.1;;;13.4;41.2
79000;BME280;68406;53.914;27.416;2023-03-20T15:09:25;984.1;;;13.3;42.1
79000;BME280;68406;53.914;27.416;2023-03-20T15:13:51;984.1;;;13.3;42.2
79000;BME280;68406;53.914;27.416;2023-03-20T15:18:51;984.1;;;13.3;41
79000;BME280;68406;53.914;27.416;2023-03-20T15:24:05;984;;;13.8;40.5
79000;BME280;68406;53.914;27.416;2023-03-20T15:29:25;984;;;14.4;39.7
79000;BME280;68406;53.914;27.416;2023-03-20T15:33:41;984;;;14.7;39.2
79000;BME280;68406;53.914;27.416;2023-03-20T15:38:51;984;;;15.4;38.1
79000;BME280;68406;53.914;27.416;2023-03-20T15:44:20;984;;;15.5;38
79000;BME280;68406;53.914;27.416;2023-03-20T15:49:25;984;;;14.4;39.7
79000;BME280;68406;53.914;27.416;2023-03-20T15:53:57;983.9;;;13.5;41.3
79000;BME280;68406;53.914;27.416;2023-03-20T15:59:03;983.9;;;13.1;42.3
79000;BME280;68406;53.914;27.416;2023-03-20T16:04:25;983.9;;;12.4;43.5
79000;BME280;68406;53.914;27.416;2023-03-20T16:09:25;983.9;;;11.8;45.1
79000;BME280;68406;53.914;27.416;2023-03-20T16:13:51;983.9;;;11.2;46.5
79000;BME280;68406;53.914;27.416;2023-03-20T16:18:41;983.9;;;10.6;48.4
79000;BME280;68406;53.914;27.416;2023-03-20T16:23:57;983.9;;;10.1;49.7
79000;BME280;68406;53.914;27.416;2023-03-20T16:28:41;983.9;;;9.7;51.2
79000;BME280;68406;53.914;27.416;2023-03-20T16:39:25;983.9;;;9.4;52.4
79000;BME280;68406;53.914;27.416;2023-03-20T16:43:51;983.9;;;9.1;53.5
79000;BME280;68406;53.914;27.416;2023-03-20T16:48:41;984;;;8.9;54.4
79000;BME280;68406;53.914;27.416;2023-03-20T16:54:17;984;;;8.8;55.2
79000;BME280;68406;53.914;27.416;2023-03-20T16:58:42;983.9;;;8.6;55.3
79000;BME280;68406;53.914;27.416;2023-03-20T17:04:12;983.9;;;8.4;56.3
79000;BME280;68406;53.914;27.416;2023-03-20T17:08:41;983.9;;;8.2;56.9
79000;BME280;68406;53.914;27.416;2023-03-20T17:14:01;983.9;;;8;57.5
79000;BME280;68406;53.914;27.416;2023-03-20T17:18:43;983.9;;;7.9;58
79000;BME280;68406;53.914;27.416;2023-03-20T17:24:11;983.9;;;7.8;58.5
79000;BME280;68406;53.914;27.416;2023-03-20T17:29:05;983.8;;;7.7;58.8
79000;BME280;68406;53.914;27.416;2023-03-20T17:34:23;983.8;;;7.6;59.2
79000;BME280;68406;53.914;27.416;2023-03-20T17:39:25;983.7;;;7.6;59.6
79000;BME280;68406;53.914;27.416;2023-03-20T17:44:17;983.7;;;7.5;60.1
79000;BME280;68406;53.914;27.416;2023-03-20T17:48:57;983.7;;;7.4;60.3
79000;BME280;68406;53.914;27.416;2023-03-20T17:53:57;983.7;;;7.3;60.5
79000;BME280;68406;53.914;27.416;2023-03-20T17:59:01;983.7;;;7.2;60.8
79000;BME280;68406;53.914;27.416;2023-03-20T18:04:09;983.7;;;7.2;61.1
79000;BME280;68406;53.914;27.416;2023-03-20T18:08:56;983.7;;;7.1;61.6
79000;BME280;68406;53.914;27.416;2023-03-20T18:14:25;983.6;;;7.1;61.5
79000;BME280;68406;53.914;27.416;2023-03-20T18:19:12;983.5;;;7.1;61.6
79000;BME280;68406;53.914;27.416;2023-03-20T18:24:01;983.6;;;7.1;61.7
79000;BME280;68406;53.914;27.416;2023-03-20T18:29:13;983.5;;;7;61.9
79000;BME280;68406;53.914;27.416;2023-03-20T18:34:05;983.5;;;7;62.2
79000;BME280;68406;53.914;27.416;2023-03-20T18:38:47;983.5;;;6.9;62.4
79000;BME280;68406;53.914;27.416;2023-03-20T18:43:57;983.4;;;6.9;62.5
79000;BME280;68406;53.914;27.416;2023-03-20T18:49:15;983.4;;;6.9;63
79000;BME280;68406;53.914;27.416;2023-03-20T18:53:51;983.4;;;6.9;62.8
79000;BME280;68406;53.914;27.416;2023-03-20T18:59:25;983.3;;;7;62.7
79000;BME280;68406;53.914;27.416;2023-03-20T19:04:03;983.3;;;7;62.6
79000;BME280;68406;53.914;27.416;2023-03-20T19:09:25;983.2;;;7.1;62.4
79000;BME280;68406;53.914;27.416;2023-03-20T19:14:09;983.2;;;7.1;62.4
79000;BME280;68406;53.914;27.416;2023-03-20T19:19:26;983.1;;;7.1;62.4
79000;BME280;68406;53.914;27.416;2023-03-20T19:23:41;983;;;7.2;62.2
79000;BME280;68406;53.914;27.416;2023-03-20T19:28:51;983;;;7.2;62.2
79000;BME280;68406;53.914;27.416;2023-03-20T19:33:51;983;;;7.1;62.2
79000;BME280;68406;53.914;27.416;2023-03-20T19:39:17;982.9;;;7;62.4
79000;BME280;68406;53.914;27.416;2023-03-20T19:43:57;982.9;;;6.9;62.7
79000;BME280;68406;53.914;27.416;2023-03-20T19:48:51;982.8;;;6.8;63.1
79000;BME280;68406;53.914;27.416;2023-03-20T19:54:27;982.9;;;6.7;63.4
79000;BME280;68406;53.914;27.416;2023-03-20T19:58:53;982.8;;;6.6;63.7
79000;BME280;68406;53.914;27.416;2023-03-20T20:03:41;982.8;;;6.5;64.2
79000;BME280;68406;53.914;27.416;2023-03-20T20:09:25;982.8;;;6.4;64.4
79000;BME280;68406;53.914;27.416;2023-03-20T20:13:51;982.8;;;6.3;64.8
79000;BME280;68406;53.914;27.416;2023-03-20T20:18:41;982.7;;;6.3;64.8
79000;BME280;68406;53.914;27.416;2023-03-20T20:24:13;982.7;;;6.3;65
79000;BME280;68406;53.914;27.416;2023-03-20T20:29:21;982.7;;;6.2;65.3
79000;BME280;68406;53.914;27.416;2023-03-20T20:33:41;982.6;;;6.2;65.4
79000;BME280;68406;53.914;27.416;2023-03-20T20:38:57;982.6;;;6.1;65.5
79000;BME280;68406;53.914;27.416;2023-03-20T20:44:27;982.6;;;6.1;65.7
79000;BME280;68406;53.914;27.416;2023-03-20T20:49:27;982.6;;;6.1;65.9
79000;BME280;68406;53.914;27.416;2023-03-20T20:53:57;982.5;;;6;66
79000;BME280;68406;53.914;27.416;2023-03-20T20:59:03;982.5;;;6;66.2
79000;BME280;68406;53.914;27.416;2023-03-20T21:04:13;982.4;;;6;66.3
79000;BME280;68406;53.914;27.416;2023-03-20T21:09:11;982.4;;;6;66.6
79000;BME280;68406;53.914;27.416;2023-03-20T21:13:51;982.3;;;5.9;66.8
79000;BME280;68406;53.914;27.416;2023-03-20T21:19:27;982.3;;;5.9;66.9
79000;BME280;68406;53.914;27.416;2023-03-20T21:24:27;982.2;;;5.9;67
79000;BME280;68406;53.914;27.416;2023-03-20T21:28:51;982.2;;;6;67
79000;BME280;68406;53.914;27.416;2023-03-20T21:33:41;982.1;;;6;67
79000;BME280;68406;53.914;27.416;2023-03-20T21:39:09;982;;;6.1;67
79000;BME280;68406;53.914;27.416;2023-03-20T21:43:41;982;;;6.1;66.9
79000;BME280;68406;53.914;27.416;2023-03-20T21:48:57;981.9;;;6.2;66.9
79000;BME280;68406;53.914;27.416;2023-03-20T21:54:03;981.9;;;6.3;66.9
79000;BME280;68406;53.914;27.416;2023-03-20T21:59:03;981.9;;;6.3;66.9
79000;BME280;68406;53.914;27.416;2023-03-20T22:04:27;981.8;;;6.3;67
79000;BME280;68406;53.914;27.416;2023-03-20T22:09:01;981.8;;;6.3;67
79000;BME280;68406;53.914;27.416;2023-03-20T22:14:27;981.8;;;6.3;67.2
79000;BME280;68406;53.914;27.416;2023-03-20T22:19:11;981.8;;;6.2;67.4
79000;BME280;68406;53.914;27.416;2023-03-20T22:24:27;981.8;;;6.2;67.6
79000;BME280;68406;53.914;27.416;2023-03-20T22:28:55;981.8;;;6.2;67.7
79000;BME280;68406;53.914;27.416;2023-03-20T22:34:13;981.8;;;6.2;67.8
79000;BME280;68406;53.914;27.416;2023-03-20T22:38:41;981.8;;;6.1;67.9
79000;BME280;68406;53.914;27.416;2023-03-20T22:44:19;981.8;;;6;68.1
79000;BME280;68406;53.914;27.416;2023-03-20T22:48:41;981.8;;;6;68.4
79000;BME280;68406;53.914;27.416;2023-03-20T22:53:41;981.8;;;5.9;68.5
79000;BME280;68406;53.914;27.416;2023-03-20T22:59:11;981.8;;;5.9;68.7
79000;BME280;68406;53.914;27.416;2023-03-20T23:04:09;981.7;;;5.8;68.8
79000;BME280;68406;53.914;27.416;2023-03-20T23:08:51;981.7;;;5.8;68.8
79000;BME280;68406;53.914;27.416;2023-03-20T23:14:27;981.7;;;5.8;68.9
79000;BME280;68406;53.914;27.416;2023-03-20T23:19:03;981.6;;;5.9;69
79000;BME280;68406;53.914;27.416;2023-03-20T23:23:51;981.6;;;5.9;69
79000;BME280;68406;53.914;27.416;2023-03-20T23:29:27;981.5;;;6;69
79000;BME280;68406;53.914;27.416;2023-03-20T23:34:09;981.5;;;5.9;69
79000;BME280;68406;53.914;27.416;2023-03-20T23:39:03;981.5;;;5.9;69.1
79000;BME280;68406;53.914;27.416;2023-03-20T23:43:47;981.4;;;5.9;69.4
79000;BME280;68406;53.914;27.416;2023-03-20T23:49:27;981.4;;;5.9;69.4
79000;BME280;68406;53.914;27.416;2023-03-20T23:54:11;981.4;;;5.9;69.4
79000;BME280;68406;53.914;27.416;2023-03-20T23:59:13;981.3;;;6;69.6
